createdAt,value
2023-05-20T00:00:24.426Z,4.80
2023-05-20T00:02:52.721Z,2.70
2023-05-20T00:05:21.077Z,3.33
2023-05-20T00:07:49.295Z,4.70
2023-05-20T00:10:17.761Z,3.80
2023-05-20T00:12:47.433Z,3.97
2023-05-20T00:15:15.774Z,4.30
2023-05-20T00:17:44.202Z,3.17
2023-05-20T00:20:13.232Z,4.20
2023-05-20T00:22:41.516Z,4.90
2023-05-20T00:25:11.339Z,4.50
2023-05-20T00:27:39.521Z,3.97
2023-05-20T00:30:10.977Z,4.07
2023-05-20T00:32:39.397Z,5.30
2023-05-20T00:35:09.394Z,3.30
2023-05-20T00:37:37.655Z,4.40
2023-05-20T00:40:06.730Z,3.23
2023-05-20T00:42:35.216Z,5.70
2023-05-20T00:45:03.921Z,6.60
2023-05-20T00:47:36.647Z,3.80
2023-05-20T00:50:05.940Z,2.87
2023-05-20T00:52:35.016Z,3.50
2023-05-20T00:55:03.442Z,3.83
2023-05-20T00:57:34.209Z,3.07
2023-05-20T01:00:02.894Z,3.10
2023-05-20T01:02:33.262Z,4.10
2023-05-20T01:05:01.556Z,3.13
2023-05-20T01:07:29.972Z,4.03
2023-05-20T01:09:58.433Z,4.43
2023-05-20T01:12:29.787Z,3.43
2023-05-20T01:15:04.390Z,2.87
2023-05-20T01:17:38.076Z,4.33
2023-05-20T01:20:10.753Z,2.73
2023-05-20T01:22:47.911Z,3.07
2023-05-20T01:25:16.163Z,4.23
2023-05-20T01:27:45.686Z,3.20
2023-05-20T01:30:15.739Z,3.43
2023-05-20T01:32:49.578Z,3.30
2023-05-20T01:35:19.245Z,3.37
2023-05-20T01:37:54.383Z,4.20
2023-05-20T01:40:24.815Z,3.80
2023-05-20T01:42:55.278Z,5.13
2023-05-20T01:45:25.370Z,3.60
2023-05-20T01:47:53.921Z,5.00
2023-05-20T01:50:22.402Z,3.67
2023-05-20T01:52:52.339Z,4.23
2023-05-20T01:55:20.762Z,3.70
2023-05-20T01:57:48.971Z,4.13
2023-05-20T02:00:17.516Z,3.43
2023-05-20T02:02:46.412Z,3.93
2023-05-20T02:05:17.511Z,4.40
2023-05-20T02:07:45.898Z,2.80
2023-05-20T02:10:16.263Z,5.13
2023-05-20T02:12:44.571Z,3.30
2023-05-20T02:15:13.020Z,4.03
2023-05-20T02:17:43.783Z,4.40
2023-05-20T02:20:14.033Z,3.70
2023-05-20T02:22:42.353Z,3.77
2023-05-20T02:25:12.576Z,7.70
2023-05-20T02:27:42.334Z,3.97
2023-05-20T02:30:11.593Z,3.10
2023-05-20T02:32:39.899Z,3.80
2023-05-20T02:35:08.762Z,3.17
2023-05-20T02:37:39.090Z,2.87
2023-05-20T02:40:10.413Z,4.53
2023-05-20T02:42:42.214Z,2.73
2023-05-20T02:45:11.261Z,4.37
2023-05-20T02:47:40.409Z,3.47
2023-05-20T02:50:09.456Z,4.00
2023-05-20T02:52:40.080Z,2.93
2023-05-20T02:55:09.607Z,3.87
2023-05-20T02:57:39.294Z,2.77
2023-05-20T03:00:13.689Z,3.00
2023-05-20T03:02:41.993Z,3.40
2023-05-20T03:05:11.078Z,2.67
2023-05-20T03:07:39.704Z,2.50
2023-05-20T03:10:09.611Z,4.27
2023-05-20T03:12:40.333Z,3.10
2023-05-20T03:15:13.551Z,3.27
2023-05-20T03:17:41.859Z,3.50
2023-05-20T03:20:12.903Z,2.80
2023-05-20T03:22:43.933Z,2.20
2023-05-20T03:25:12.687Z,3.43
2023-05-20T03:27:44.872Z,3.70
2023-05-20T03:30:15.290Z,3.93
2023-05-20T03:32:44.365Z,2.90
2023-05-20T03:35:13.022Z,3.87
2023-05-20T03:37:41.266Z,3.90
2023-05-20T03:40:11.368Z,3.57
2023-05-20T03:42:41.298Z,3.57
2023-05-20T03:45:11.097Z,2.27
2023-05-20T03:47:48.151Z,3.17
2023-05-20T03:50:19.104Z,3.00
2023-05-20T03:52:47.387Z,3.00
2023-05-20T03:55:17.932Z,2.87
2023-05-20T03:57:46.190Z,3.53
2023-05-20T04:00:16.120Z,3.67
2023-05-20T04:02:48.522Z,4.27
2023-05-20T04:05:20.283Z,4.20
2023-05-20T04:07:49.755Z,3.60
2023-05-20T04:10:20.641Z,3.40
2023-05-20T04:12:48.964Z,3.47
2023-05-20T04:15:17.550Z,3.20
2023-05-20T04:17:57.959Z,5.23
2023-05-20T04:20:27.002Z,4.50
2023-05-20T04:22:58.045Z,4.63
2023-05-20T04:25:28.778Z,4.07
2023-05-20T04:27:57.954Z,3.40
2023-05-20T04:30:26.410Z,4.43
2023-05-20T04:32:57.434Z,3.90
2023-05-20T04:35:26.258Z,3.00
2023-05-20T04:37:57.080Z,2.73
2023-05-20T04:40:25.416Z,4.77
2023-05-20T04:42:54.521Z,4.53
2023-05-20T04:45:23.409Z,4.40
2023-05-20T04:47:53.487Z,3.40
2023-05-20T04:50:23.367Z,3.40
2023-05-20T04:52:51.775Z,3.67
2023-05-20T04:55:25.003Z,3.33
2023-05-20T04:57:53.487Z,4.33
2023-05-20T05:00:21.713Z,3.13
2023-05-20T05:02:50.254Z,3.27
2023-05-20T05:05:18.799Z,4.00
2023-05-20T05:07:48.541Z,4.00
2023-05-20T05:10:16.869Z,3.50
2023-05-20T05:12:45.553Z,4.13
2023-05-20T05:15:13.906Z,4.27
2023-05-20T05:17:44.245Z,4.93
2023-05-20T05:20:13.039Z,4.47
2023-05-20T05:22:41.828Z,2.97
2023-05-20T05:25:12.612Z,5.20
2023-05-20T05:27:41.269Z,5.80
2023-05-20T05:30:11.545Z,5.70
2023-05-20T05:32:40.686Z,4.43
2023-05-20T05:35:09.634Z,5.23
2023-05-20T05:37:38.051Z,4.70
2023-05-20T05:40:09.038Z,5.37
2023-05-20T05:42:38.706Z,4.60
2023-05-20T05:45:09.510Z,3.77
2023-05-20T05:47:38.256Z,4.37
2023-05-20T05:50:07.074Z,4.70
2023-05-20T05:52:36.460Z,4.77
2023-05-20T05:55:10.756Z,6.63
2023-05-20T05:57:40.576Z,4.90
2023-05-20T06:00:11.083Z,5.07
2023-05-20T06:02:49.451Z,3.97
2023-05-20T06:05:33.133Z,5.30
2023-05-20T06:08:04.460Z,4.03
2023-05-20T06:10:34.757Z,3.40
2023-05-20T06:13:04.375Z,5.00
2023-05-20T06:15:33.654Z,3.63
2023-05-20T06:18:04.000Z,3.43
2023-05-20T06:20:33.556Z,4.70
2023-05-20T06:23:01.957Z,4.70
2023-05-20T06:25:39.644Z,4.27
2023-05-20T06:28:10.607Z,4.67
2023-05-20T06:30:39.062Z,4.90
2023-05-20T06:33:07.361Z,3.90
2023-05-20T06:35:36.345Z,5.47
2023-05-20T06:38:06.198Z,4.43
2023-05-20T06:40:35.376Z,3.83
2023-05-20T06:43:03.917Z,4.87
2023-05-20T06:45:51.894Z,4.83
2023-05-20T06:48:28.876Z,4.30
2023-05-20T06:50:59.667Z,5.30
2023-05-20T06:53:28.095Z,5.50
2023-05-20T06:55:56.775Z,4.93
2023-05-20T06:58:25.238Z,4.70
2023-05-20T07:00:55.740Z,4.53
2023-05-20T07:03:24.873Z,4.40
2023-05-20T07:05:55.585Z,6.70
2023-05-20T07:08:24.626Z,4.77
2023-05-20T07:10:53.103Z,4.77
2023-05-20T07:13:24.064Z,5.53
2023-05-20T07:15:55.900Z,6.83
2023-05-20T07:18:24.158Z,5.90
2023-05-20T07:20:56.895Z,5.10
2023-05-20T07:23:34.685Z,6.70
2023-05-20T07:26:03.268Z,6.13
2023-05-20T07:28:31.519Z,7.17
2023-05-20T07:31:01.175Z,5.80
2023-05-20T07:33:31.070Z,5.50
2023-05-20T07:36:00.274Z,6.93
2023-05-20T07:38:28.593Z,6.43
2023-05-20T07:41:01.104Z,6.07
2023-05-20T07:43:29.906Z,6.90
2023-05-20T07:46:02.242Z,6.60
2023-05-20T07:48:30.575Z,7.70
2023-05-20T07:50:59.904Z,5.33
2023-05-20T07:53:29.168Z,5.57
2023-05-20T07:55:57.532Z,5.40
2023-05-20T07:58:28.987Z,5.70
2023-05-20T08:00:57.560Z,6.60
2023-05-20T08:03:28.319Z,6.33
2023-05-20T08:06:02.411Z,5.90
2023-05-20T08:08:30.718Z,5.50
2023-05-20T08:11:06.713Z,5.17
2023-05-20T08:13:35.009Z,6.30
2023-05-20T08:16:07.359Z,8.30
2023-05-20T08:18:38.143Z,6.23
2023-05-20T08:21:08.102Z,6.90
2023-05-20T08:23:38.935Z,5.40
2023-05-20T08:26:08.829Z,5.70
2023-05-20T08:28:41.171Z,6.37
2023-05-20T08:31:09.878Z,6.80
2023-05-20T08:33:39.684Z,7.27
2023-05-20T08:36:09.028Z,5.80
2023-05-20T08:38:37.736Z,7.30
2023-05-20T08:41:06.068Z,6.57
2023-05-20T08:43:35.044Z,5.43
2023-05-20T08:46:06.616Z,6.20
2023-05-20T08:48:37.176Z,4.93
2023-05-20T08:51:10.526Z,6.93
2023-05-20T08:53:38.749Z,6.20
2023-05-20T08:56:10.814Z,6.13
2023-05-20T08:58:43.081Z,8.17
2023-05-20T09:01:11.428Z,7.90
2023-05-20T09:03:39.575Z,6.77
2023-05-20T09:06:10.280Z,5.50
2023-05-20T09:08:38.785Z,7.33
2023-05-20T09:11:07.184Z,6.60
2023-05-20T09:13:35.951Z,6.77
2023-05-20T09:16:04.514Z,6.47
2023-05-20T09:18:33.084Z,6.60
2023-05-20T09:21:07.068Z,7.27
2023-05-20T09:23:38.801Z,7.50
2023-05-20T09:26:07.214Z,6.60
2023-05-20T09:28:38.442Z,7.00
2023-05-20T09:31:08.888Z,7.03
2023-05-20T09:33:39.425Z,8.13
2023-05-20T09:36:09.961Z,9.73
2023-05-20T09:38:41.714Z,7.33
2023-05-20T09:41:15.418Z,7.37
2023-05-20T09:43:44.243Z,8.97
2023-05-20T09:46:13.078Z,8.73
2023-05-20T09:48:41.669Z,6.33
2023-05-20T09:51:11.500Z,6.37
2023-05-20T09:53:41.841Z,5.50
2023-05-20T09:56:10.090Z,7.53
2023-05-20T09:58:39.055Z,8.20
2023-05-20T10:01:08.438Z,8.37
2023-05-20T10:03:37.182Z,6.40
2023-05-20T10:06:25.920Z,8.67
2023-05-20T10:09:19.433Z,7.70
2023-05-20T10:11:56.513Z,6.73
2023-05-20T10:14:42.243Z,6.03
2023-05-20T10:17:18.038Z,6.40
2023-05-20T10:19:46.313Z,9.40
2023-05-20T10:22:14.726Z,7.00
2023-05-20T10:24:45.657Z,4.97
2023-05-20T10:27:17.220Z,7.80
2023-05-20T10:32:25.901Z,7.83
2023-05-20T10:34:55.652Z,7.03
2023-05-20T10:37:28.008Z,6.83
2023-05-20T10:40:08.468Z,7.47
2023-05-20T10:42:36.904Z,6.10
2023-05-20T10:45:06.169Z,6.43
2023-05-20T10:47:34.623Z,5.23
2023-05-20T10:50:04.997Z,6.07
2023-05-20T10:52:35.001Z,10.00
2023-05-20T10:55:04.963Z,7.27
2023-05-20T10:57:35.928Z,7.23
2023-05-20T11:00:06.775Z,7.27
2023-05-20T11:02:36.293Z,5.90
2023-05-20T11:05:06.736Z,8.37
2023-05-20T11:07:35.253Z,7.27
2023-05-20T11:10:03.874Z,7.10
2023-05-20T11:12:33.862Z,7.03
2023-05-20T11:15:05.305Z,7.40
2023-05-20T11:17:34.160Z,8.77
2023-05-20T11:20:02.471Z,8.57
2023-05-20T11:22:30.901Z,6.63
2023-05-20T11:24:59.167Z,6.57
2023-05-20T11:27:27.409Z,5.67
2023-05-20T11:29:55.663Z,10.60
2023-05-20T11:32:26.678Z,7.00
2023-05-20T11:34:55.111Z,7.50
2023-05-20T11:37:25.478Z,7.20
2023-05-20T11:40:07.828Z,7.33
2023-05-20T11:42:37.407Z,7.63
2023-05-20T11:45:14.419Z,8.80
2023-05-20T11:47:44.073Z,5.20
2023-05-20T11:50:17.980Z,10.70
2023-05-20T11:52:46.405Z,7.37
2023-05-20T11:55:16.466Z,6.73
2023-05-20T11:57:45.104Z,7.60
2023-05-20T12:00:14.302Z,7.37
2023-05-20T12:02:44.110Z,7.60
2023-05-20T12:05:12.917Z,7.50
2023-05-20T12:07:41.378Z,8.60
2023-05-20T12:10:11.168Z,7.17
2023-05-20T12:12:39.546Z,9.80
2023-05-20T12:15:08.568Z,6.73
2023-05-20T12:17:50.057Z,6.87
2023-05-20T12:20:21.038Z,5.57
2023-05-20T12:22:49.846Z,8.00
2023-05-20T12:25:19.350Z,6.67
2023-05-20T12:27:49.258Z,7.80
2023-05-20T12:30:18.816Z,7.90
2023-05-20T12:32:47.820Z,7.40
2023-05-20T12:35:17.953Z,6.60
2023-05-20T12:37:46.528Z,7.40
2023-05-20T12:40:15.279Z,7.80
2023-05-20T12:42:43.723Z,5.77
2023-05-20T12:45:13.500Z,6.83
2023-05-20T12:47:41.834Z,5.60
2023-05-20T12:50:10.929Z,6.03
2023-05-20T12:52:40.630Z,5.00
2023-05-20T12:55:13.845Z,6.40
2023-05-20T12:57:42.655Z,6.67
2023-05-20T13:00:12.660Z,6.80
2023-05-20T13:02:42.550Z,7.13
2023-05-20T13:05:11.772Z,6.57
2023-05-20T13:07:41.662Z,6.87
2023-05-20T13:10:11.651Z,7.20
2023-05-20T13:12:40.592Z,8.10
2023-05-20T13:15:09.957Z,6.43
2023-05-20T13:17:38.454Z,7.00
2023-05-20T13:20:07.926Z,6.27
2023-05-20T13:22:36.228Z,5.93
2023-05-20T13:25:06.781Z,6.27
2023-05-20T13:27:35.430Z,4.60
2023-05-20T13:30:04.206Z,7.57
2023-05-20T13:32:32.625Z,5.90
2023-05-20T13:35:01.004Z,5.43
2023-05-20T13:37:30.775Z,5.97
2023-05-20T13:39:58.990Z,7.70
2023-05-20T13:42:28.588Z,8.67
2023-05-20T13:44:56.776Z,6.33
2023-05-20T13:47:27.722Z,7.00
2023-05-20T13:49:56.113Z,6.70
2023-05-20T13:52:26.672Z,7.70
2023-05-20T13:54:54.865Z,5.57
2023-05-20T13:57:23.546Z,7.90
2023-05-20T13:59:53.222Z,7.37
2023-05-20T14:02:21.556Z,7.10
2023-05-20T14:04:49.850Z,8.03
2023-05-20T14:07:18.174Z,6.37
2023-05-20T14:09:46.447Z,6.57
2023-05-20T14:12:14.732Z,7.60
2023-05-20T14:14:43.084Z,5.77
2023-05-20T14:17:12.780Z,4.27
2023-05-20T14:19:41.185Z,6.93
2023-05-20T14:22:09.398Z,6.37
2023-05-20T14:24:37.643Z,7.70
2023-05-20T14:27:07.304Z,7.80
2023-05-20T14:29:35.623Z,5.33
2023-05-20T14:32:05.206Z,6.20
2023-05-20T14:34:35.006Z,7.57
2023-05-20T14:37:09.842Z,6.40
2023-05-20T14:39:38.309Z,6.80
2023-05-20T14:42:07.001Z,6.40
2023-05-20T14:44:35.496Z,4.13
2023-05-20T14:47:04.468Z,7.37
2023-05-20T14:49:34.430Z,4.10
2023-05-20T14:52:02.697Z,5.37
2023-05-20T14:54:33.074Z,5.90
2023-05-20T14:57:01.331Z,7.07
2023-05-20T14:59:29.615Z,6.50
2023-05-20T15:02:00.632Z,5.20
2023-05-20T15:04:28.934Z,6.50
2023-05-20T15:06:58.662Z,4.60
2023-05-20T15:09:27.196Z,7.97
2023-05-20T15:11:55.542Z,6.90
2023-05-20T15:14:23.710Z,5.53
2023-05-20T15:16:52.097Z,4.30
2023-05-20T15:19:22.925Z,6.77
2023-05-20T15:21:51.859Z,6.13
2023-05-20T15:24:22.132Z,6.03
2023-05-20T15:26:50.383Z,6.50
2023-05-20T15:29:18.683Z,6.20
2023-05-20T15:31:46.894Z,6.90
2023-05-20T15:34:15.186Z,6.37
2023-05-20T15:36:43.502Z,6.33
2023-05-20T15:39:11.997Z,8.07
2023-05-20T15:41:42.555Z,7.00
2023-05-20T15:44:12.050Z,6.53
2023-05-20T15:46:40.430Z,4.50
2023-05-20T15:49:08.810Z,6.80
2023-05-20T15:51:37.038Z,8.37
2023-05-20T15:54:05.329Z,7.17
2023-05-20T15:56:33.629Z,6.10
2023-05-20T15:59:03.305Z,8.10
2023-05-20T16:01:31.864Z,7.00
2023-05-20T16:04:00.292Z,5.30
2023-05-20T16:06:28.598Z,5.87
2023-05-20T16:08:57.094Z,5.63
2023-05-20T16:11:25.513Z,6.63
2023-05-20T16:13:53.752Z,6.93
2023-05-20T16:16:26.088Z,5.60
2023-05-20T16:18:54.659Z,6.27
2023-05-20T16:21:25.048Z,6.30
2023-05-20T16:23:53.801Z,6.03
2023-05-20T16:26:22.786Z,5.63
2023-05-20T16:28:51.090Z,4.63
2023-05-20T16:31:19.687Z,5.30
2023-05-20T16:33:49.299Z,6.40
2023-05-20T16:36:17.616Z,7.10
2023-05-20T16:38:48.397Z,7.13
2023-05-20T16:41:16.825Z,6.97
2023-05-20T16:43:45.206Z,7.47
2023-05-20T16:46:14.633Z,5.00
2023-05-20T16:48:45.331Z,5.57
2023-05-20T16:51:15.043Z,6.17
2023-05-20T16:53:45.542Z,5.10
2023-05-20T16:56:13.870Z,6.90
2023-05-20T16:58:42.136Z,6.73
2023-05-20T17:01:10.497Z,6.70
2023-05-20T17:03:38.854Z,5.20
2023-05-20T17:06:07.515Z,6.47
2023-05-20T17:08:38.244Z,4.93
2023-05-20T17:11:06.670Z,6.17
2023-05-20T17:13:34.915Z,5.57
2023-05-20T17:16:03.359Z,6.70
2023-05-20T17:18:31.745Z,4.63
2023-05-20T17:21:01.204Z,6.97
2023-05-20T17:23:29.495Z,6.10
2023-05-20T17:25:59.154Z,5.70
2023-05-20T17:28:27.625Z,6.17
2023-05-20T17:30:55.893Z,6.20
2023-05-20T17:33:24.645Z,4.10
2023-05-20T17:35:55.336Z,5.47
2023-05-20T17:38:26.210Z,6.60
2023-05-20T17:40:54.832Z,3.67
2023-05-20T17:43:25.648Z,4.83
2023-05-20T17:45:53.950Z,6.00
2023-05-20T17:48:22.277Z,4.27
2023-05-20T17:50:50.768Z,4.63
2023-05-20T17:53:21.084Z,5.30
2023-05-20T17:55:50.107Z,5.40
2023-05-20T17:58:18.604Z,4.80
2023-05-20T18:00:48.202Z,5.90
2023-05-20T18:03:17.778Z,5.77
2023-05-20T18:05:46.163Z,5.47
2023-05-20T18:08:14.390Z,4.70
2023-05-20T18:10:42.659Z,4.63
2023-05-20T18:13:10.970Z,5.23
2023-05-20T18:15:39.306Z,3.13
2023-05-20T18:18:09.116Z,5.70
2023-05-20T18:20:37.643Z,4.83
2023-05-20T18:23:05.967Z,5.50
2023-05-20T18:25:34.229Z,6.20
2023-05-20T18:28:03.109Z,3.93
2023-05-20T18:30:31.482Z,5.83
2023-05-20T18:32:59.790Z,4.40
2023-05-20T18:35:29.501Z,4.87
2023-05-20T18:38:00.135Z,4.43
2023-05-20T18:40:29.128Z,4.90
2023-05-20T18:42:59.648Z,3.33
2023-05-20T18:45:27.979Z,4.87
2023-05-20T18:47:59.376Z,4.17
2023-05-20T18:50:29.200Z,2.93
2023-05-20T18:52:57.698Z,3.67
2023-05-20T18:55:26.858Z,4.23
2023-05-20T18:57:55.093Z,3.63
2023-05-20T19:00:26.025Z,3.60
2023-05-20T19:02:58.110Z,3.80
2023-05-20T19:05:26.628Z,4.10
2023-05-20T19:07:56.362Z,3.87
2023-05-20T19:10:24.768Z,5.47
2023-05-20T19:12:52.941Z,4.80
2023-05-20T19:15:21.272Z,4.50
2023-05-20T19:17:49.575Z,5.57
2023-05-20T19:20:18.076Z,5.10
2023-05-20T19:22:46.387Z,5.33
2023-05-20T19:25:16.202Z,4.63
2023-05-20T19:27:44.477Z,5.83
2023-05-20T19:30:13.529Z,4.50
2023-05-20T19:32:44.094Z,4.60
2023-05-20T19:35:12.444Z,3.30
2023-05-20T19:37:40.767Z,3.80
2023-05-20T19:40:10.298Z,3.80
2023-05-20T19:42:39.895Z,5.27
2023-05-20T19:45:09.564Z,3.73
2023-05-20T19:47:38.129Z,3.30
2023-05-20T19:50:07.393Z,3.30
2023-05-20T19:52:35.994Z,3.37
2023-05-20T19:55:04.463Z,4.30
2023-05-20T19:57:33.082Z,4.67
2023-05-20T20:00:07.344Z,4.40
2023-05-20T20:02:41.581Z,4.50
2023-05-20T20:05:10.511Z,3.93
2023-05-20T20:07:38.839Z,4.27
2023-05-20T20:10:08.558Z,4.27
2023-05-20T20:12:36.806Z,3.70
2023-05-20T20:15:07.357Z,6.33
2023-05-20T20:17:35.780Z,5.87
2023-05-20T20:20:07.297Z,4.57
2023-05-20T20:22:38.128Z,5.63
2023-05-20T20:25:06.972Z,6.30
2023-05-20T20:27:35.666Z,6.10
2023-05-20T20:30:03.939Z,8.03
2023-05-20T20:32:35.100Z,5.43
2023-05-20T20:35:06.184Z,5.60
2023-05-20T20:37:35.549Z,8.30
2023-05-20T20:40:08.519Z,6.90
2023-05-20T20:42:37.522Z,5.53
2023-05-20T20:45:06.528Z,5.30
2023-05-20T20:47:38.702Z,4.60
2023-05-20T20:50:08.273Z,7.30
2023-05-20T20:52:38.697Z,6.73
2023-05-20T20:55:08.140Z,5.27
2023-05-20T20:57:36.945Z,5.87
2023-05-20T21:00:16.052Z,6.00
2023-05-20T21:02:45.906Z,5.73
2023-05-20T21:05:16.932Z,5.33
2023-05-20T21:07:49.762Z,4.40
2023-05-20T21:10:18.291Z,5.30
2023-05-20T21:12:48.676Z,5.00
2023-05-20T21:15:17.104Z,3.10
2023-05-20T21:17:46.758Z,5.43
2023-05-20T21:20:16.271Z,4.47
2023-05-20T21:22:44.683Z,4.53
2023-05-20T21:25:13.216Z,5.60
2023-05-20T21:27:42.284Z,4.97
2023-05-20T21:30:11.643Z,3.90
2023-05-20T21:32:40.175Z,4.37
2023-05-20T21:35:11.220Z,4.47
2023-05-20T21:37:39.589Z,3.33
2023-05-20T21:40:09.105Z,6.33
2023-05-20T21:42:37.939Z,4.70
2023-05-20T21:45:07.458Z,4.83
2023-05-20T21:47:35.890Z,3.53
2023-05-20T21:50:04.546Z,4.03
2023-05-20T21:52:34.239Z,3.50
2023-05-20T21:55:02.503Z,3.80
2023-05-20T21:57:33.319Z,6.33
2023-05-20T22:00:05.597Z,5.13
2023-05-20T22:02:33.910Z,4.10
2023-05-20T22:05:02.265Z,5.50
2023-05-20T22:07:30.784Z,4.20
2023-05-20T22:10:00.836Z,4.13
2023-05-20T22:12:29.374Z,4.30
2023-05-20T22:14:57.806Z,3.03
2023-05-20T22:17:26.249Z,4.10
2023-05-20T22:19:54.996Z,3.80
2023-05-20T22:22:23.270Z,4.97
2023-05-20T22:24:51.655Z,3.97
2023-05-20T22:27:21.456Z,3.50
2023-05-20T22:29:49.678Z,3.77
2023-05-20T22:32:17.990Z,4.13
2023-05-20T22:34:46.511Z,6.23
2023-05-20T22:37:15.951Z,5.33
2023-05-20T22:39:44.198Z,4.43
2023-05-20T22:42:12.562Z,5.33
2023-05-20T22:44:42.307Z,6.60
2023-05-20T22:47:10.534Z,4.60
2023-05-20T22:49:40.536Z,3.33
2023-05-20T22:52:08.992Z,4.73
2023-05-20T22:54:37.227Z,4.17
2023-05-20T22:57:06.081Z,4.97
2023-05-20T22:59:34.421Z,5.30
2023-05-20T23:02:06.833Z,4.37
2023-05-20T23:04:35.299Z,3.97
2023-05-20T23:07:03.650Z,5.67
2023-05-20T23:09:31.978Z,5.70
2023-05-20T23:12:02.649Z,4.60
2023-05-20T23:14:31.583Z,4.17
2023-05-20T23:16:59.987Z,3.90
2023-05-20T23:19:29.922Z,4.80
2023-05-20T23:21:58.243Z,6.17
2023-05-20T23:24:26.676Z,8.33
2023-05-20T23:26:57.145Z,4.70
2023-05-20T23:29:28.830Z,4.30
2023-05-20T23:31:57.017Z,4.87
2023-05-20T23:34:25.300Z,4.47
2023-05-20T23:36:54.900Z,5.00
2023-05-20T23:39:25.635Z,4.30
2023-05-20T23:41:53.850Z,6.10
2023-05-20T23:44:22.235Z,5.07
2023-05-20T23:46:51.127Z,3.97
2023-05-20T23:49:22.562Z,4.50
2023-05-20T23:51:51.464Z,5.07
2023-05-20T23:54:23.423Z,4.30
2023-05-20T23:56:51.697Z,4.37
2023-05-20T23:59:19.881Z,8.53
